Time;durP1;ratioP1;P1;durP2;ratioP2;P2;SDS_P1;SDS_P2;PMS_P1;PMS_P2;Temp;Humidity;BMP_temperature;BMP_pressure;BME280_temperature;BME280_humidity;BME280_pressure;Samples;Min_cycle;Max_cycle;Signal;HPM_P1;HPM_P2
2023/10/08 00:00:43;;;;;;;3.20;0.52;;;;;;;12.34;100.00;100598.28;7392871;19;20412;-57
2023/10/08 00:03:10;;;;;;;1.08;1.08;;;;;;;13.16;100.00;100587.56;7393889;19;20033;-57
2023/10/08 00:05:37;;;;;;;0.40;0.28;;;;;;;18.87;100.00;100564.91;7392743;19;20078;-57
2023/10/08 00:08:04;;;;;;;0.55;0.45;;;;;;;34.37;63.09;100541.81;7399472;19;20430;-57
2023/10/08 00:10:41;;;;;;;0.45;0.40;;;;;;;17.00;100.00;100568.03;7401348;19;20017;-57
2023/10/08 00:13:09;;;;;;;5.93;0.75;;;;;;;14.41;100.00;100567.34;7400798;19;20019;-57
2023/10/08 00:15:36;;;;;;;4.05;0.45;;;;;;;13.26;100.00;100567.44;7401540;19;20010;-57
2023/10/08 00:18:04;;;;;;;1.63;0.60;;;;;;;23.66;100.00;100537.78;7400024;19;20346;-57
2023/10/08 00:20:43;;;;;;;2.15;1.17;;;;;;;35.57;55.88;100531.84;7400669;19;20017;-57
2023/10/08 00:23:10;;;;;;;1.05;0.20;;;;;;;36.61;49.56;100526.78;7400479;19;20019;-57
2023/10/08 00:25:40;;;;;;;1.38;0.47;;;;;;;38.15;43.45;100533.97;7399079;19;20010;-57
2023/10/08 00:28:10;;;;;;;1.50;0.60;;;;;;;37.88;44.26;100534.16;7404049;19;20017;-57
2023/10/08 00:30:43;;;;;;;7.18;0.80;;;;;;;39.92;38.92;100546.94;7400252;19;20021;-57
2023/10/08 00:33:09;;;;;;;1.20;0.60;;;;;;;41.02;35.64;100532.94;7399940;19;20027;-57
2023/10/08 00:35:41;;;;;;;2.65;0.40;;;;;;;40.76;34.50;100526.88;7399000;19;20015;-57
2023/10/08 00:38:32;;;;;;;0.22;0.22;;;;;;;41.17;33.87;100523.28;7399272;19;20027;-57
2023/10/08 00:40:57;;;;;;;1.90;1.05;;;;;;;37.16;41.34;100526.16;7403681;19;20409;-57
2023/10/08 00:43:32;;;;;;;2.70;0.85;;;;;;;40.19;35.43;100534.16;7399804;19;20501;-57
2023/10/08 00:45:59;;;;;;;2.03;1.70;;;;;;;40.54;33.81;100537.00;7396000;19;20367;-57
2023/10/08 00:48:29;;;;;;;3.92;0.30;;;;;;;19.12;100.00;100568.72;7400092;19;20078;-57
2023/10/08 00:51:10;;;;;;;0.45;0.45;;;;;;;15.50;100.00;100591.13;7399337;19;20015;-57
2023/10/08 00:53:39;;;;;;;0.55;0.43;;;;;;;17.79;100.00;100584.78;7400899;19;20010;-57
2023/10/08 00:56:16;;;;;;;1.08;0.35;;;;;;;18.17;100.00;100587.69;7399155;19;20458;-57
2023/10/08 00:58:52;;;;;;;4.15;0.43;;;;;;;18.05;100.00;100588.19;7397964;19;20010;-57
2023/10/08 01:01:20;;;;;;;0.30;0.28;;;;;;;18.02;100.00;100583.56;7397032;19;20014;-57
2023/10/08 01:03:49;;;;;;;0.93;0.45;;;;;;;17.96;100.00;100589.19;7398795;19;20007;-57
2023/10/08 01:06:21;;;;;;;0.45;0.25;;;;;;;17.89;100.00;100594.53;7395181;19;20015;-57
2023/10/08 01:08:52;;;;;;;0.20;0.20;;;;;;;17.87;100.00;100597.09;7398756;19;20021;-57
2023/10/08 01:11:42;;;;;;;2.50;0.65;;;;;;;17.88;100.00;100585.34;7398102;19;20026;-57
2023/10/08 01:14:08;;;;;;;0.50;0.50;;;;;;;17.80;100.00;100594.78;7397776;19;20359;-57
2023/10/08 01:16:34;;;;;;;6.93;0.73;;;;;;;17.75;100.00;100592.72;7399426;19;20014;-57
2023/10/08 01:19:01;;;;;;;4.85;0.68;;;;;;;17.69;100.00;100597.56;7397290;19;20018;-57
2023/10/08 01:21:42;;;;;;;0.65;0.32;;;;;;;17.64;100.00;100616.00;7397732;19;20406;-57
2023/10/08 01:24:08;;;;;;;;;;;;;;;17.61;100.00;100605.72;7399064;19;20034;-57
2023/10/08 01:26:38;;;;;;;2.75;0.98;;;;;;;17.58;100.00;100609.56;7394990;19;20323;-57
2023/10/08 01:29:09;;;;;;;0.47;0.47;;;;;;;17.55;100.00;100612.59;7399177;19;20089;-57
2023/10/08 01:31:36;;;;;;;2.35;0.57;;;;;;;17.50;100.00;100616.16;7398327;19;20026;-57
2023/10/08 01:34:04;;;;;;;0.80;0.30;;;;;;;17.43;100.00;100623.78;7398088;19;20025;-57
2023/10/08 01:36:31;;;;;;;3.40;0.70;;;;;;;17.37;100.00;100625.03;7397924;19;20010;-57
2023/10/08 01:38:58;;;;;;;3.15;0.55;;;;;;;17.34;100.00;100620.44;7398770;19;20078;-57
2023/10/08 01:41:30;;;;;;;1.63;0.65;;;;;;;17.34;100.00;100620.44;7396676;19;20018;-57
2023/10/08 01:43:58;;;;;;;5.32;0.40;;;;;;;17.31;100.00;100627.06;7398086;19;20017;-57
2023/10/08 01:46:28;;;;;;;0.75;0.25;;;;;;;17.30;100.00;100631.16;7395830;19;20099;-57
2023/10/08 01:49:03;;;;;;;1.42;1.05;;;;;;;17.25;100.00;100629.06;7396623;19;20078;-57
2023/10/08 01:51:37;;;;;;;0.40;0.20;;;;;;;17.16;100.00;100626.44;7397730;19;20031;-57
2023/10/08 01:54:09;;;;;;;2.35;0.35;;;;;;;17.08;100.00;100642.28;7397751;19;20041;-57
2023/10/08 01:56:42;;;;;;;0.52;0.20;;;;;;;17.04;100.00;100642.50;7398139;19;20362;-57
2023/10/08 01:59:10;;;;;;;2.05;0.63;;;;;;;17.02;100.00;100649.91;7395969;19;20056;-57
2023/10/08 02:01:36;;;;;;;2.70;0.30;;;;;;;16.96;100.00;100651.88;7396818;19;20017;-57
2023/10/08 02:04:02;;;;;;;0.30;0.28;;;;;;;16.88;100.00;100645.97;7395273;19;20367;-57
2023/10/08 02:06:30;;;;;;;0.75;0.60;;;;;;;16.84;100.00;100639.03;7396231;19;20014;-58
2023/10/08 02:08:58;;;;;;;10.75;0.80;;;;;;;16.82;100.00;100647.97;7397449;19;20014;-58
2023/10/08 02:11:27;;;;;;;3.92;0.70;;;;;;;16.84;100.00;100653.09;7395693;19;20077;-58
2023/10/08 02:13:53;;;;;;;0.47;0.32;;;;;;;18.00;100.00;100648.91;7396263;19;20015;-58
2023/10/08 02:16:22;;;;;;;0.28;0.28;;;;;;;34.93;55.83;100612.66;7396823;19;20035;-58
2023/10/08 02:18:49;;;;;;;11.55;0.68;;;;;;;38.79;40.16;100605.44;7396700;19;20014;-58
2023/10/08 02:21:16;;;;;;;0.95;0.95;;;;;;;39.92;35.94;100614.81;7396432;19;20011;-58
2023/10/08 02:23:43;;;;;;;2.30;1.17;;;;;;;40.50;34.20;100612.81;7396721;19;20013;-58
2023/10/08 02:26:09;;;;;;;3.80;1.38;;;;;;;40.74;32.72;100599.84;7395144;19;20066;-58
2023/10/08 02:28:38;;;;;;;2.15;0.68;;;;;;;29.63;45.96;100613.38;7400043;19;20014;-58
2023/10/08 02:31:05;;;;;;;0.35;0.32;;;;;;;40.46;34.45;100592.94;7394923;19;20021;-58
2023/10/08 02:33:31;;;;;;;1.65;0.68;;;;;;;41.70;30.99;100595.28;7395748;19;20015;-58
2023/10/08 02:36:00;;;;;;;0.47;0.17;;;;;;;40.29;31.54;100584.19;7393648;19;20462;-58
2023/10/08 02:38:28;;;;;;;2.60;1.48;;;;;;;21.09;93.59;100618.16;7397286;19;20377;-58
2023/10/08 02:40:56;;;;;;;0.95;0.40;;;;;;;15.05;100.00;100629.03;7394886;19;20359;-58
2023/10/08 02:43:23;;;;;;;0.65;0.38;;;;;;;13.68;100.00;100621.25;7396283;19;20018;-58
2023/10/08 02:45:49;;;;;;;0.20;0.15;;;;;;;12.96;100.00;100618.88;7391903;19;20011;-58
2023/10/08 02:48:16;;;;;;;2.25;0.52;;;;;;;12.54;100.00;100629.28;7396812;19;20010;-58
2023/10/08 02:50:45;;;;;;;1.08;1.05;;;;;;;12.30;100.00;100631.19;7396448;19;20010;-58
2023/10/08 02:53:12;;;;;;;0.85;0.77;;;;;;;12.13;100.00;100633.53;7398835;19;20062;-58
2023/10/08 02:55:43;;;;;;;1.75;0.30;;;;;;;12.03;100.00;100641.16;7396197;19;20030;-58
2023/10/08 02:58:14;;;;;;;1.45;0.93;;;;;;;11.90;100.00;100643.34;7397403;19;20029;-58
2023/10/08 03:00:42;;;;;;;5.38;1.38;;;;;;;11.76;100.00;100643.94;7394332;19;20069;-58
2023/10/08 03:03:18;;;;;;;1.48;0.22;;;;;;;17.65;100.00;100628.03;7398268;19;20010;-57
2023/10/08 03:05:56;;;;;;;0.20;0.20;;;;;;;12.94;100.00;100635.34;7392980;19;20015;-58
2023/10/08 03:08:23;;;;;;;2.80;0.85;;;;;;;13.11;100.00;100647.72;7394131;19;20015;-58
2023/10/08 03:11:02;;;;;;;2.85;0.70;;;;;;;12.01;100.00;100638.06;7393980;19;20862;-58
2023/10/08 03:13:28;;;;;;;1.95;0.85;;;;;;;11.69;100.00;100638.69;7395903;19;20015;-58
2023/10/08 03:18:24;;;;;;;0.30;0.30;;;;;;;11.69;100.00;100649.84;7395770;19;20036;-58
2023/10/08 03:20:50;;;;;;;0.75;0.38;;;;;;;11.50;100.00;100658.63;7393723;19;20010;-58
2023/10/08 03:23:23;;;;;;;3.22;1.08;;;;;;;11.35;100.00;100658.41;7397107;19;20011;-58
2023/10/08 03:26:28;;;;;;;0.20;0.20;;;;;;;11.29;100.00;100661.06;7392748;19;20014;-59
2023/10/08 03:28:57;;;;;;;0.47;0.40;;;;;;;11.53;100.00;100652.09;7394850;19;20023;-58
2023/10/08 03:34:14;;;;;;;0.65;0.40;;;;;;;11.17;100.00;100650.03;7394291;19;20018;-58
2023/10/08 03:36:44;;;;;;;0.28;0.28;;;;;;;11.12;100.00;100656.19;7391880;19;20032;-57
2023/10/08 03:39:13;;;;;;;1.10;0.82;;;;;;;11.10;100.00;100644.72;7395871;19;20014;-58
2023/10/08 03:41:51;;;;;;;2.85;0.93;;;;;;;11.07;100.00;100643.63;7395624;19;20016;-58
2023/10/08 03:44:17;;;;;;;2.55;1.75;;;;;;;11.07;100.00;100649.22;7393529;19;20018;-58
2023/10/08 03:46:46;;;;;;;2.72;0.38;;;;;;;11.04;100.00;100649.38;7392393;19;20014;-58
2023/10/08 03:49:31;;;;;;;2.08;1.48;;;;;;;11.04;100.00;100661.28;7392993;19;20019;-58
2023/10/08 03:51:58;;;;;;;1.98;0.50;;;;;;;11.06;100.00;100642.09;7395520;19;20011;-58
2023/10/08 03:54:30;;;;;;;3.13;0.38;;;;;;;11.06;100.00;100646.88;7393331;19;20037;-58
2023/10/08 03:56:57;;;;;;;0.90;0.40;;;;;;;11.08;100.00;100642.41;7395537;19;20014;-57
2023/10/08 04:02:21;;;;;;;0.70;0.70;;;;;;;11.14;100.00;100632.19;7395956;19;20010;-57
2023/10/08 04:04:57;;;;;;;0.45;0.22;;;;;;;11.19;100.00;100628.03;7393525;19;20015;-58
2023/10/08 04:10:38;;;;;;;0.20;0.20;;;;;;;11.24;100.00;100635.81;7394552;19;20007;-58
2023/10/08 04:12:55;;;;;;;3.80;0.47;;;;;;;11.25;100.00;100637.34;7396558;19;20017;-58
2023/10/08 04:15:21;;;;;;;0.55;0.52;;;;;;;11.24;100.00;100642.13;7393408;19;20382;-58
2023/10/08 04:17:50;;;;;;;0.28;0.28;;;;;;;11.23;100.00;100637.81;7393835;19;20024;-58
2023/10/08 04:23:20;;;;;;;2.80;1.00;;;;;;;11.16;100.00;100645.66;7392705;19;20043;-58
2023/10/08 04:25:54;;;;;;;0.63;0.50;;;;;;;11.14;100.00;100642.56;7392025;19;20035;-58
2023/10/08 04:28:21;;;;;;;1.10;0.77;;;;;;;11.11;100.00;100646.28;7396976;19;20014;-58
2023/10/08 04:30:48;;;;;;;0.77;0.55;;;;;;;11.06;100.00;100642.09;7392342;19;20020;-58
2023/10/08 04:33:14;;;;;;;2.60;0.60;;;;;;;11.07;100.00;100642.84;7392286;19;20010;-57
2023/10/08 04:35:48;;;;;;;0.80;0.55;;;;;;;11.07;100.00;100646.41;7393077;19;20014;-58
2023/10/08 04:38:18;;;;;;;3.20;1.05;;;;;;;11.06;100.00;100642.09;7393859;19;20014;-57
2023/10/08 04:40:48;;;;;;;0.57;0.40;;;;;;;11.04;100.00;100638.22;7392626;19;20093;-58
2023/10/08 04:43:24;;;;;;;1.35;0.45;;;;;;;11.02;100.00;100646.25;7392969;19;20474;-58
2023/10/08 04:46:21;;;;;;;0.43;0.25;;;;;;;11.02;100.00;100651.84;7391188;19;20031;-58
2023/10/08 04:48:51;;;;;;;1.13;1.00;;;;;;;16.39;100.00;100654.72;7394312;19;20010;-58
2023/10/08 04:51:18;;;;;;;1.20;0.80;;;;;;;34.46;55.38;100613.25;7392420;19;20007;-57
2023/10/08 04:53:47;;;;;;;3.13;0.65;;;;;;;37.68;42.60;100603.66;7397377;19;20014;-58
2023/10/08 04:56:16;;;;;;;1.58;0.50;;;;;;;38.23;39.46;100609.25;7399969;19;20015;-57
2023/10/08 04:58:47;;;;;;;3.60;0.77;;;;;;;38.38;37.58;100608.59;7398893;19;20373;-57
2023/10/08 05:01:18;;;;;;;9.48;0.52;;;;;;;39.00;35.38;100607.84;7401595;19;20535;-58
2023/10/08 05:17:21;;;;;;;0.40;0.40;;;;;;;39.80;31.03;100599.72;7398884;19;20339;-58
2023/10/08 05:22:43;;;;;;;1.13;0.77;;;;;;;39.28;31.00;100589.47;7400617;19;20471;-58
2023/10/08 05:30:28;;;;;;;3.83;0.28;;;;;;;39.57;30.25;100596.56;7397673;19;20403;-59
2023/10/08 05:35:54;;;;;;;1.75;0.93;;;;;;;39.35;29.77;100602.88;7398533;19;20015;-58
2023/10/08 05:43:55;;;;;;;0.50;0.50;;;;;;;39.19;29.40;100598.53;7398863;19;20014;-58
2023/10/08 05:59:52;;;;;;;0.10;0.10;;;;;;;39.35;27.92;100602.16;7393685;19;20506;-57
2023/10/08 06:05:22;;;;;;;0.68;0.25;;;;;;;39.54;28.05;100594.91;7399729;19;20011;-57
2023/10/08 06:13:08;;;;;;;1.00;0.28;;;;;;;39.96;27.46;100594.53;7397290;19;20019;-57
2023/10/08 06:18:19;;;;;;;0.55;0.55;;;;;;;39.74;27.00;100593.66;7396986;19;20021;-57
2023/10/08 06:20:49;;;;;;;3.55;0.63;;;;;;;39.61;27.22;100594.56;7397055;19;20014;-56
2023/10/08 06:23:20;;;;;;;0.23;0.10;;;;;;;23.50;45.09;100621.34;7397415;19;20019;-57
2023/10/08 06:25:47;;;;;;;0.75;0.25;;;;;;;14.87;100.00;100640.47;7395867;19;20382;-56
2023/10/08 06:28:20;;;;;;;0.30;0.30;;;;;;;12.88;100.00;100640.03;7399663;19;20462;-57
2023/10/08 06:30:48;;;;;;;0.28;0.28;;;;;;;16.50;100.00;100641.53;7400478;19;20095;-57
2023/10/08 06:33:14;;;;;;;0.75;0.47;;;;;;;13.40;100.00;100641.50;7396170;19;20010;-57
2023/10/08 06:35:44;;;;;;;1.70;0.32;;;;;;;11.62;100.00;100638.97;7397005;19;20011;-57
2023/10/08 06:38:11;;;;;;;2.15;0.65;;;;;;;11.05;100.00;100642.53;7396112;19;20015;-57
2023/10/08 06:43:12;;;;;;;0.22;0.20;;;;;;;11.56;100.00;100635.25;7395946;19;20392;-57
2023/10/08 06:45:40;;;;;;;0.60;0.60;;;;;;;10.82;100.00;100637.50;7396044;19;20019;-57
2023/10/08 06:48:06;;;;;;;1.65;0.52;;;;;;;10.66;100.00;100638.50;7396446;19;20015;-57
2023/10/08 06:50:36;;;;;;;0.65;0.43;;;;;;;10.60;100.00;100638.34;7394449;19;20034;-57
2023/10/08 06:53:07;;;;;;;1.27;0.77;;;;;;;10.58;100.00;100643.59;7395613;19;20018;-57
2023/10/08 06:55:35;;;;;;;0.20;0.20;;;;;;;10.60;100.00;100643.13;7394910;19;20014;-56
2023/10/08 06:58:06;;;;;;;0.20;0.20;;;;;;;10.62;100.00;100640.66;7397938;19;20458;-57
2023/10/08 07:00:40;;;;;;;1.08;0.73;;;;;;;10.68;100.00;100639.63;7394423;19;20031;-57
2023/10/08 07:03:10;;;;;;;0.45;0.45;;;;;;;10.74;100.00;100639.03;7393962;19;20014;-57
2023/10/08 07:05:40;;;;;;;0.40;0.40;;;;;;;10.81;100.00;100647.09;7394401;19;20011;-57
2023/10/08 07:08:13;;;;;;;0.50;0.30;;;;;;;10.98;100.00;100648.41;7393675;19;20018;-57
2023/10/08 07:10:41;;;;;;;0.80;0.45;;;;;;;28.99;88.80;100619.38;7397684;19;20017;-57
2023/10/08 07:13:08;;;;;;;0.22;0.22;;;;;;;35.34;48.13;100610.13;7395391;19;20011;-57
2023/10/08 07:15:38;;;;;;;3.63;1.63;;;;;;;16.21;100.00;100638.94;7392991;19;20018;-56
2023/10/08 07:18:09;;;;;;;0.82;0.60;;;;;;;12.83;100.00;100640.66;7394247;19;20010;-56
2023/10/08 07:20:41;;;;;;;2.17;1.17;;;;;;;25.55;100.00;100622.19;7394350;19;20497;-55
2023/10/08 07:23:24;;;;;;;0.47;0.43;;;;;;;13.07;100.00;100638.72;7396666;19;20036;-56
2023/10/08 07:26:13;;;;;;;0.85;0.60;;;;;;;14.14;100.00;100637.66;7392473;19;20014;-56
2023/10/08 07:28:41;;;;;;;0.68;0.47;;;;;;;12.90;100.00;100643.13;7396945;19;20019;-55
2023/10/08 07:31:21;;;;;;;5.20;0.65;;;;;;;12.95;100.00;100634.84;7393584;19;20021;-56
2023/10/08 07:33:56;;;;;;;0.60;0.38;;;;;;;12.99;100.00;100642.31;7393681;19;20066;-56
2023/10/08 07:36:26;;;;;;;1.17;0.28;;;;;;;12.00;100.00;100652.47;7394447;19;20037;-56
2023/10/08 07:38:53;;;;;;;4.03;0.88;;;;;;;12.73;100.00;100641.94;7396048;19;20486;-56
2023/10/08 07:41:20;;;;;;;1.55;0.65;;;;;;;19.53;100.00;100634.56;7392457;19;20015;-56
2023/10/08 07:43:55;;;;;;;1.42;1.23;;;;;;;23.39;100.00;100637.88;7391898;19;20021;-56
2023/10/08 07:46:30;;;;;;;10.13;2.05;;;;;;;35.09;53.90;100621.63;7393278;19;20011;-56
2023/10/08 07:48:58;;;;;;;4.35;1.15;;;;;;;23.95;81.75;100633.34;7393961;19;20087;-56
2023/10/08 07:51:24;;;;;;;1.48;1.38;;;;;;;17.67;100.00;100637.50;7395515;19;20027;-56
2023/10/08 07:53:55;;;;;;;0.73;0.43;;;;;;;34.80;55.46;100606.78;7394891;19;20014;-56
2023/10/08 07:56:23;;;;;;;0.60;0.47;;;;;;;32.28;64.84;100603.28;7397214;19;20011;-56
2023/10/08 07:58:55;;;;;;;2.35;0.85;;;;;;;18.75;100.00;100628.25;7394988;19;20470;-56
2023/10/08 08:01:24;;;;;;;3.13;0.35;;;;;;;14.89;100.00;100627.50;7392496;19;20070;-56
2023/10/08 08:03:51;;;;;;;8.10;1.25;;;;;;;13.94;100.00;100623.50;7392442;19;20033;-56
2023/10/08 08:06:17;;;;;;;4.50;1.67;;;;;;;13.52;100.00;100634.88;7391684;19;20011;-56
2023/10/08 08:08:44;;;;;;;0.90;0.77;;;;;;;13.30;100.00;100629.56;7395329;19;20359;-56
2023/10/08 08:11:17;;;;;;;3.13;1.02;;;;;;;30.63;85.68;100602.91;7397329;19;20022;-56
2023/10/08 08:13:44;;;;;;;3.95;1.08;;;;;;;32.78;65.63;100593.25;7397007;19;20014;-56
2023/10/08 08:16:19;;;;;;;1.75;1.17;;;;;;;36.80;48.67;100596.81;7397415;19;20019;-56
2023/10/08 08:18:48;;;;;;;3.35;1.55;;;;;;;39.58;39.51;100590.03;7392702;19;20014;-56
2023/10/08 08:21:15;;;;;;;1.40;0.68;;;;;;;40.64;36.61;100590.72;7393843;19;20019;-56
2023/10/08 08:23:49;;;;;;;8.18;2.22;;;;;;;41.07;34.65;100593.06;7396517;19;20006;-56
2023/10/08 08:26:26;;;;;;;4.05;0.85;;;;;;;19.92;100.00;100623.13;7392567;19;20487;-56
2023/10/08 08:28:57;;;;;;;3.40;1.30;;;;;;;17.33;100.00;100641.41;7397878;19;20346;-56
2023/10/08 08:31:27;;;;;;;2.00;1.17;;;;;;;14.91;100.00;100641.81;7400500;19;20014;-56
2023/10/08 08:33:53;;;;;;;0.37;0.37;;;;;;;14.61;100.00;100645.91;7399509;19;20025;-56
2023/10/08 08:36:21;;;;;;;1.77;0.90;;;;;;;15.04;100.00;100647.88;7400069;19;20266;-56
2023/10/08 08:38:48;;;;;;;3.30;1.02;;;;;;;13.83;100.00;100645.69;7402237;19;20018;-56
2023/10/08 08:41:18;;;;;;;2.78;0.63;;;;;;;13.89;100.00;100652.94;7398553;19;20035;-56
2023/10/08 08:43:47;;;;;;;3.53;1.05;;;;;;;13.82;100.00;100656.13;7400098;19;20010;-56
2023/10/08 08:46:15;;;;;;;6.38;2.13;;;;;;;14.12;100.00;100657.72;7398629;19;20010;-56
2023/10/08 08:48:44;;;;;;;2.88;1.10;;;;;;;15.33;100.00;100660.28;7399811;19;20463;-56
2023/10/08 08:51:11;;;;;;;3.58;1.92;;;;;;;14.34;100.00;100663.00;7398956;19;20037;-56
2023/10/08 08:53:37;;;;;;;2.13;1.52;;;;;;;15.42;100.00;100651.75;7398057;19;20014;-56
2023/10/08 08:56:06;;;;;;;2.58;1.05;;;;;;;15.22;100.00;100646.09;7399558;19;20458;-56
2023/10/08 08:58:33;;;;;;;4.05;0.45;;;;;;;18.28;100.00;100640.50;7403531;19;20462;-56
2023/10/08 09:01:01;;;;;;;2.72;1.17;;;;;;;17.59;100.00;100646.94;7398385;19;20010;-56
2023/10/08 09:03:32;;;;;;;2.05;0.88;;;;;;;26.10;100.00;100634.81;7399455;19;20015;-56
2023/10/08 09:05:58;;;;;;;2.88;1.60;;;;;;;39.28;50.47;100620.78;7397339;19;20006;-56
2023/10/08 09:08:35;;;;;;;2.88;1.20;;;;;;;38.55;44.56;100629.06;7398979;19;20014;-56
2023/10/08 09:11:04;;;;;;;9.15;1.38;;;;;;;24.80;100.00;100671.56;7398298;19;20039;-56
2023/10/08 09:13:34;;;;;;;4.10;1.20;;;;;;;38.15;56.62;100652.53;7398960;19;20022;-56
2023/10/08 09:16:16;;;;;;;4.38;0.43;;;;;;;41.71;43.15;100649.47;7398580;19;20027;-56
2023/10/08 09:18:45;;;;;;;4.38;0.65;;;;;;;26.52;97.52;100674.56;7398183;19;20464;-56
2023/10/08 09:21:22;;;;;;;1.05;0.95;;;;;;;41.55;45.55;100638.69;7398228;19;20078;-56
2023/10/08 09:23:54;;;;;;;1.33;0.52;;;;;;;42.16;39.93;100635.66;7399617;19;20011;-56
2023/10/08 09:26:24;;;;;;;6.70;1.67;;;;;;;26.10;100.00;100645.47;7397324;19;20015;-56
2023/10/08 09:28:52;;;;;;;0.52;0.45;;;;;;;23.09;100.00;100638.13;7398210;19;20019;-56
2023/10/08 09:31:18;;;;;;;3.45;0.68;;;;;;;21.95;100.00;100632.41;7398342;19;20463;-56
2023/10/08 09:33:54;;;;;;;2.25;0.82;;;;;;;17.90;100.00;100650.41;7399061;19;20497;-56
2023/10/08 09:36:20;;;;;;;1.40;0.70;;;;;;;39.78;51.69;100620.06;7398253;19;20033;-56
2023/10/08 09:38:48;;;;;;;3.78;1.15;;;;;;;22.38;100.00;100644.44;7399863;19;20358;-57
2023/10/08 09:41:14;;;;;;;2.30;0.57;;;;;;;33.43;87.61;100633.16;7398380;19;20062;-56
2023/10/08 09:43:41;;;;;;;1.85;0.70;;;;;;;19.14;100.00;100639.56;7398379;19;20014;-56
2023/10/08 09:46:27;;;;;;;1.35;1.00;;;;;;;17.46;100.00;100650.19;7396447;19;20015;-56
2023/10/08 09:48:59;;;;;;;3.78;1.45;;;;;;;17.13;100.00;100644.38;7397833;19;20006;-56
2023/10/08 09:51:28;;;;;;;1.15;0.65;;;;;;;17.00;100.00;100646.84;7397835;19;20010;-56
2023/10/08 09:54:13;;;;;;;6.85;1.08;;;;;;;17.10;100.00;100667.88;7398219;19;20485;-56
2023/10/08 09:56:40;;;;;;;1.25;0.70;;;;;;;21.42;100.00;100661.66;7398050;19;20050;-56
2023/10/08 09:59:10;;;;;;;1.35;0.40;;;;;;;18.71;100.00;100666.53;7397238;19;20025;-56
2023/10/08 11:48:03;;;;;;;1.13;0.35;;;;;;;32.56;52.62;100593.81;6002788;19;3073779;-56
2023/10/08 11:50:30;;;;;;;0.50;0.30;;;;;;;42.99;37.81;100571.53;7431645;19;20382;-56
2023/10/08 11:53:03;;;;;;;4.78;0.30;;;;;;;45.91;32.91;100562.59;7434207;19;20014;-56
2023/10/08 11:55:35;;;;;;;0.35;0.30;;;;;;;41.01;33.44;100557.78;7429842;19;20020;-56
2023/10/08 11:58:09;;;;;;;0.47;0.40;;;;;;;23.21;100.00;100594.78;7429232;19;20018;-56
2023/10/08 12:00:44;;;;;;;0.77;0.45;;;;;;;20.51;100.00;100613.28;7429006;19;20029;-56
2023/10/08 12:03:24;;;;;;;1.75;0.73;;;;;;;20.41;100.00;100595.84;7430554;19;20014;-55
2023/10/08 12:05:58;;;;;;;;;;;;;;;19.72;100.00;100588.78;7430322;19;20014;-56
2023/10/08 12:08:27;;;;;;;0.40;0.10;;;;;;;19.05;100.00;100589.00;7434051;19;19921;-56
2023/10/08 12:11:00;;;;;;;5.28;0.50;;;;;;;18.93;100.00;100591.06;7433540;19;20018;-56
2023/10/08 12:13:26;;;;;;;1.95;0.30;;;;;;;19.01;100.00;100580.03;7430407;19;20010;-56
2023/10/08 12:16:05;;;;;;;1.98;0.38;;;;;;;19.08;100.00;100573.81;7427425;19;20010;-55
2023/10/08 12:18:39;;;;;;;1.17;0.63;;;;;;;35.92;79.26;100565.69;7428886;19;20515;-55
2023/10/08 12:21:10;;;;;;;0.47;0.30;;;;;;;45.47;35.93;100533.16;7432996;19;20022;-55
2023/10/08 12:23:37;;;;;;;2.38;0.43;;;;;;;47.56;30.10;100528.50;7427597;19;20362;-55
2023/10/08 12:26:07;;;;;;;1.42;0.38;;;;;;;48.42;27.29;100531.25;7430417;19;20037;-57
2023/10/08 12:28:34;;;;;;;3.72;0.20;;;;;;;25.47;98.04;100564.31;7429281;19;20014;-58
2023/10/08 12:31:03;;;;;;;1.55;0.70;;;;;;;24.41;100.00;100562.69;7426883;19;20011;-60
2023/10/08 12:33:31;;;;;;;1.27;0.47;;;;;;;23.78;100.00;100556.13;7428001;19;20011;-60
2023/10/08 12:35:58;;;;;;;0.30;0.22;;;;;;;23.05;100.00;100563.81;7426262;19;20037;-60
2023/10/08 12:38:27;;;;;;;0.85;0.28;;;;;;;21.00;100.00;100576.03;7430524;19;20010;-60
2023/10/08 12:40:54;;;;;;;1.13;0.50;;;;;;;20.55;100.00;100566.41;7427660;19;20181;-60
2023/10/08 12:43:22;;;;;;;1.83;0.43;;;;;;;20.44;100.00;100569.34;7428219;19;20018;-60
2023/10/08 12:45:52;;;;;;;0.15;0.08;;;;;;;20.47;100.00;100559.00;7427776;19;20022;-60
2023/10/08 12:48:28;;;;;;;1.17;0.20;;;;;;;20.52;100.00;100564.63;7405874;19;20074;-58
2023/10/08 12:51:00;;;;;;;0.82;0.30;;;;;;;20.52;100.00;100558.19;7402993;19;20015;-58
2023/10/08 12:53:33;;;;;;;2.40;0.68;;;;;;;20.51;100.00;100559.50;7399397;19;20051;-58
2023/10/08 12:56:05;;;;;;;0.45;0.20;;;;;;;23.73;100.00;100545.66;7397696;19;20018;-58
2023/10/08 12:58:44;;;;;;;1.02;0.30;;;;;;;28.50;87.20;100551.31;7398664;19;20469;-57
2023/10/08 13:01:11;;;;;;;6.50;1.40;;;;;;;22.33;100.00;100550.84;7400799;19;20082;-56
2023/10/08 13:03:47;;;;;;;4.93;1.50;;;;;;;21.88;100.00;100548.69;7399342;19;20014;-58
2023/10/08 13:06:21;;;;;;;1.73;0.68;;;;;;;21.16;100.00;100559.41;7398300;19;20463;-58
2023/10/08 13:08:58;;;;;;;0.85;0.30;;;;;;;20.96;100.00;100552.13;7398322;19;20011;-60
2023/10/08 13:11:26;;;;;;;0.80;0.20;;;;;;;20.88;100.00;100543.44;7399230;19;20018;-59
2023/10/08 13:13:57;;;;;;;0.82;0.50;;;;;;;20.86;100.00;100550.91;7397989;19;20011;-58
2023/10/08 13:16:26;;;;;;;0.32;0.10;;;;;;;20.89;100.00;100547.03;7395820;19;20074;-57
2023/10/08 13:18:52;;;;;;;1.15;0.10;;;;;;;20.83;100.00;100540.69;7397910;19;20503;-59
2023/10/08 13:21:24;;;;;;;0.55;0.25;;;;;;;20.79;100.00;100555.09;7396874;19;20025;-59
2023/10/08 13:23:56;;;;;;;1.63;0.20;;;;;;;20.84;100.00;100551.47;7397876;19;20010;-58
2023/10/08 13:26:24;;;;;;;4.78;0.40;;;;;;;20.80;100.00;100548.16;7396890;19;20362;-58
2023/10/08 13:28:50;;;;;;;0.50;0.30;;;;;;;20.83;100.00;100532.19;7396853;19;20022;-59
2023/10/08 13:31:19;;;;;;;4.07;0.30;;;;;;;20.86;100.00;100539.59;7397404;19;20773;-58
2023/10/08 13:33:48;;;;;;;1.00;0.25;;;;;;;20.91;100.00;100545.22;7396135;19;20361;-58
2023/10/08 13:36:16;;;;;;;1.10;0.10;;;;;;;20.97;100.00;100554.41;7395187;19;20014;-58
2023/10/08 13:38:49;;;;;;;8.05;0.50;;;;;;;21.35;100.00;100557.38;7395861;19;20342;-57
2023/10/08 13:41:15;;;;;;;1.00;0.30;;;;;;;20.96;100.00;100546.47;7395167;19;20063;-56
2023/10/08 13:43:45;;;;;;;1.48;0.35;;;;;;;20.81;100.00;100541.19;7396550;19;20010;-58
2023/10/08 13:46:14;;;;;;;1.50;0.85;;;;;;;20.71;100.00;100525.06;7396794;19;20346;-56
2023/10/08 13:48:42;;;;;;;1.77;0.35;;;;;;;20.66;100.00;100523.84;7396300;19;20006;-58
2023/10/08 13:51:13;;;;;;;4.20;0.47;;;;;;;20.61;100.00;100530.34;7399235;19;20073;-56
2023/10/08 13:53:47;;;;;;;3.03;0.47;;;;;;;20.58;100.00;100516.47;7397621;19;20014;-60
2023/10/08 13:56:13;;;;;;;0.20;0.10;;;;;;;20.56;100.00;100514.16;7396594;19;20007;-61
2023/10/08 13:58:46;;;;;;;1.85;0.45;;;;;;;20.54;100.00;100522.41;7395408;19;20007;-62
2023/10/08 14:01:19;;;;;;;1.67;0.63;;;;;;;20.47;100.00;100534.31;7396166;19;20018;-59
2023/10/08 14:03:49;;;;;;;2.40;0.98;;;;;;;20.37;100.00;100530.28;7397333;19;20495;-61
2023/10/08 14:06:19;;;;;;;2.05;1.23;;;;;;;20.44;100.00;100529.72;7396628;19;20014;-60
2023/10/08 14:08:51;;;;;;;3.05;0.60;;;;;;;20.36;100.00;100528.75;7397050;19;20018;-60
2023/10/08 14:11:29;;;;;;;0.73;0.30;;;;;;;20.20;100.00;100510.63;7397173;19;20066;-59
2023/10/08 14:14:02;;;;;;;2.38;0.22;;;;;;;20.07;100.00;100513.28;7397327;19;20336;-59
2023/10/08 14:16:32;;;;;;;1.17;0.20;;;;;;;20.02;100.00;100521.78;7395848;19;20022;-60
2023/10/08 14:18:59;;;;;;;0.52;0.40;;;;;;;19.97;100.00;100517.69;7396595;19;20014;-61
2023/10/08 14:21:36;;;;;;;1.23;0.55;;;;;;;19.91;100.00;100527.50;7397609;19;20045;-60
2023/10/08 14:24:03;;;;;;;2.28;0.47;;;;;;;19.89;100.00;100513.13;7396234;19;20011;-59
2023/10/08 14:26:36;;;;;;;2.92;0.30;;;;;;;19.81;100.00;100500.84;7397286;19;20007;-62
2023/10/08 14:29:15;;;;;;;0.70;0.20;;;;;;;19.65;100.00;100494.78;7395982;19;20363;-60
2023/10/08 14:31:44;;;;;;;3.10;0.57;;;;;;;19.55;100.00;100490.75;7397714;19;20025;-61